createdAt,value
2023-02-12T00:01:01.513Z,65.18
2023-02-12T00:04:06.378Z,64.73
2023-02-12T00:07:10.776Z,64.33
2023-02-12T00:10:19.378Z,64.60
2023-02-12T00:13:24.952Z,63.52
2023-02-12T00:16:32.093Z,64.71
2023-02-12T00:19:39.636Z,62.34
2023-02-12T00:22:47.296Z,62.06
2023-02-12T00:25:54.571Z,61.10
2023-02-12T00:28:58.833Z,62.61
2023-02-12T00:32:05.742Z,62.25
2023-02-12T00:35:10.137Z,63.64
2023-02-12T00:38:14.963Z,60.74
2023-02-12T00:41:22.937Z,60.25
2023-02-12T00:44:27.386Z,59.46
2023-02-12T00:47:34.913Z,58.15
2023-02-12T00:50:39.455Z,57.44
2023-02-12T00:53:46.684Z,57.81
2023-02-12T00:56:56.341Z,59.94
2023-02-12T01:00:05.871Z,58.84
2023-02-12T01:03:10.316Z,57.78
2023-02-12T01:06:18.428Z,55.79
2023-02-12T01:09:23.961Z,52.75
2023-02-12T01:12:30.412Z,50.66
2023-02-12T01:15:34.608Z,51.59
2023-02-12T01:18:41.827Z,50.78
2023-02-12T01:21:48.203Z,50.68
2023-02-12T01:24:53.010Z,48.52
2023-02-12T01:28:02.981Z,47.94
2023-02-12T01:31:21.919Z,52.13
2023-02-12T01:34:36.688Z,54.13
2023-02-12T01:37:43.757Z,55.26
2023-02-12T01:40:53.945Z,55.72
2023-02-12T01:44:14.665Z,52.53
2023-02-12T01:51:22.424Z,53.74
2023-02-12T01:59:57.258Z,51.11
2023-02-12T02:03:59.344Z,48.07
2023-02-12T02:12:15.147Z,47.36
2023-02-12T02:15:34.353Z,44.64
2023-02-12T02:19:07.809Z,44.54
2023-02-12T02:22:23.869Z,46.54
2023-02-12T02:25:51.855Z,46.82
2023-02-12T02:29:46.397Z,44.78
2023-02-12T02:33:18.128Z,44.33
2023-02-12T02:36:58.312Z,44.44
2023-02-12T02:40:35.957Z,46.40
2023-02-12T02:44:04.434Z,46.33
2023-02-12T02:47:13.862Z,47.00
2023-02-12T02:50:21.475Z,47.15
2023-02-12T02:53:33.723Z,47.59
2023-02-12T02:56:42.109Z,48.44
2023-02-12T02:59:55.519Z,46.78
2023-02-12T03:03:07.733Z,47.23
2023-02-12T03:06:21.172Z,49.37
2023-02-12T03:09:33.944Z,49.39
2023-02-12T03:13:07.085Z,46.80
2023-02-12T03:16:28.340Z,47.26
2023-02-12T03:19:43.748Z,47.99
2023-02-12T03:22:54.467Z,47.48
2023-02-12T03:26:21.687Z,45.86
2023-02-12T03:29:27.959Z,48.20
2023-02-12T03:32:47.602Z,47.73
2023-02-12T03:36:09.133Z,48.98
2023-02-12T03:39:26.516Z,48.10
2023-02-12T03:42:49.918Z,45.37
2023-02-12T03:46:18.190Z,47.20
2023-02-12T03:49:32.664Z,48.58
2023-02-12T03:53:02.080Z,46.83
2023-02-12T03:56:13.941Z,48.74
2023-02-12T03:59:20.283Z,48.24
2023-02-12T04:02:25.082Z,48.20
2023-02-12T04:05:29.732Z,45.92
2023-02-12T04:08:34.425Z,47.74
2023-02-12T04:12:07.345Z,45.37
2023-02-12T04:15:30.324Z,45.59
2023-02-12T04:18:52.481Z,47.40
2023-02-12T04:22:11.643Z,46.05
2023-02-12T04:25:18.155Z,46.57
2023-02-12T04:28:37.602Z,48.62
2023-02-12T04:31:55.957Z,46.69
2023-02-12T04:35:25.060Z,47.71
2023-02-12T04:38:46.082Z,45.85
2023-02-12T04:42:06.395Z,46.13
2023-02-12T04:45:15.580Z,46.13
2023-02-12T04:48:19.768Z,46.24
2023-02-12T04:51:24.277Z,45.42
2023-02-12T04:54:28.429Z,48.20
2023-02-12T04:57:32.621Z,45.76
2023-02-12T05:00:36.756Z,46.45
2023-02-12T05:03:41.074Z,45.79
2023-02-12T05:06:46.398Z,46.49
2023-02-12T05:09:50.150Z,45.40
2023-02-12T05:12:55.244Z,46.06
2023-02-12T05:15:59.779Z,45.93
2023-02-12T05:19:04.373Z,47.19
2023-02-12T05:22:08.801Z,46.18
2023-02-12T05:25:12.937Z,47.62
2023-02-12T05:28:17.052Z,46.49
2023-02-12T05:31:24.432Z,45.49
2023-02-12T05:34:28.433Z,46.50
2023-02-12T05:37:35.749Z,47.53
2023-02-12T05:40:41.133Z,46.00
2023-02-12T05:43:49.161Z,44.86
2023-02-12T05:46:53.542Z,44.96
2023-02-12T05:49:57.658Z,45.01
2023-02-12T05:53:02.548Z,44.72
2023-02-12T05:56:25.594Z,45.31
2023-02-12T05:59:30.211Z,45.59
2023-02-12T06:02:38.028Z,44.96
2023-02-12T06:05:42.452Z,44.50
2023-02-12T06:08:50.114Z,46.01
2023-02-12T06:11:54.109Z,46.23
2023-02-12T06:14:58.440Z,45.63
2023-02-12T06:18:02.494Z,46.13
2023-02-12T06:21:07.086Z,46.65
2023-02-12T06:24:16.578Z,45.30
2023-02-12T06:27:21.570Z,45.17
2023-02-12T06:30:26.199Z,45.26
2023-02-12T06:33:30.948Z,46.81
2023-02-12T06:36:35.778Z,47.18
2023-02-12T06:39:40.220Z,47.20
2023-02-12T06:42:44.566Z,46.34
2023-02-12T06:45:49.010Z,46.94
2023-02-12T06:48:57.831Z,47.38
2023-02-12T06:52:03.420Z,47.31
2023-02-12T06:55:08.148Z,46.16
2023-02-12T06:58:12.042Z,46.62
2023-02-12T07:05:07.697Z,46.33
2023-02-12T07:08:12.500Z,45.22
2023-02-12T07:11:17.303Z,46.55
2023-02-12T07:14:21.572Z,44.64
2023-02-12T07:17:26.086Z,45.76
2023-02-12T07:20:30.368Z,45.64
2023-02-12T07:23:35.921Z,45.46
2023-02-12T07:26:40.733Z,45.86
2023-02-12T07:29:47.831Z,46.57
2023-02-12T07:32:52.187Z,47.08
2023-02-12T07:35:56.904Z,47.03
2023-02-12T07:39:02.530Z,47.97
2023-02-12T07:42:07.176Z,47.73
2023-02-12T07:45:11.990Z,47.21
2023-02-12T07:48:16.279Z,47.78
2023-02-12T07:51:21.019Z,48.08
2023-02-12T07:54:28.229Z,48.59
2023-02-12T07:57:32.625Z,48.60
2023-02-12T08:00:37.038Z,48.49
2023-02-12T08:03:41.981Z,48.10
2023-02-12T08:06:49.327Z,48.50
2023-02-12T08:09:54.384Z,48.41
2023-02-12T08:12:58.759Z,48.02
2023-02-12T08:16:11.752Z,48.06
2023-02-12T08:19:20.476Z,47.69
2023-02-12T08:22:25.364Z,48.54
2023-02-12T08:25:29.820Z,48.08
2023-02-12T08:28:33.920Z,48.05
2023-02-12T08:31:42.263Z,48.37
2023-02-12T08:34:46.261Z,48.71
2023-02-12T08:37:50.342Z,48.84
2023-02-12T08:40:54.817Z,48.66
2023-02-12T08:44:01.049Z,48.54
2023-02-12T08:47:07.567Z,48.82
2023-02-12T08:50:12.350Z,49.18
2023-02-12T08:53:16.328Z,50.74
2023-02-12T08:56:21.140Z,49.52
2023-02-12T08:59:25.641Z,50.93
2023-02-12T09:02:29.972Z,50.71
2023-02-12T09:05:34.754Z,49.67
2023-02-12T09:08:40.569Z,50.73
2023-02-12T09:11:45.593Z,49.26
2023-02-12T09:14:51.496Z,49.03
2023-02-12T09:17:56.845Z,49.64
2023-02-12T09:21:16.847Z,50.28
2023-02-12T09:24:21.379Z,48.97
2023-02-12T09:27:25.868Z,49.25
2023-02-12T09:30:31.156Z,49.95
2023-02-12T09:33:35.873Z,50.22
2023-02-12T09:36:40.431Z,49.58
2023-02-12T09:39:46.070Z,50.49
2023-02-12T09:43:21.302Z,50.35
2023-02-12T09:46:35.009Z,50.06
2023-02-12T09:50:14.482Z,50.15
2023-02-12T09:53:22.874Z,49.51
2023-02-12T09:56:29.401Z,49.28
2023-02-12T09:59:44.573Z,49.13
2023-02-12T10:02:54.101Z,50.02
2023-02-12T10:06:08.825Z,49.92
2023-02-12T10:09:33.377Z,50.75
2023-02-12T10:12:50.254Z,52.20
2023-02-12T10:16:01.961Z,51.76
2023-02-12T10:19:33.114Z,51.93
2023-02-12T10:22:56.027Z,52.76
2023-02-12T10:26:16.024Z,53.04
2023-02-12T10:29:31.637Z,52.30
2023-02-12T10:32:37.775Z,52.78
2023-02-12T10:35:50.765Z,53.33
2023-02-12T10:39:05.974Z,53.07
2023-02-12T10:42:17.550Z,52.29
2023-02-12T10:45:30.139Z,53.55
2023-02-12T10:48:40.140Z,53.34
2023-02-12T10:51:53.724Z,53.35
2023-02-12T10:54:58.002Z,52.43
2023-02-12T10:58:04.365Z,53.88
2023-02-12T11:01:31.883Z,54.93
2023-02-12T11:04:36.610Z,55.35
2023-02-12T11:07:50.282Z,55.17
2023-02-12T11:10:59.024Z,55.61
2023-02-12T11:14:17.509Z,55.03
2023-02-12T11:17:30.682Z,53.97
2023-02-12T11:21:02.426Z,52.01
2023-02-12T11:24:32.970Z,51.28
2023-02-12T11:27:41.087Z,52.97
2023-02-12T11:30:58.610Z,52.84
2023-02-12T11:34:05.982Z,54.03
2023-02-12T11:37:21.071Z,53.57
2023-02-12T11:40:36.590Z,53.16
2023-02-12T11:43:41.968Z,52.42
2023-02-12T11:47:10.162Z,55.20
2023-02-12T11:50:23.243Z,54.97
2023-02-12T11:53:50.236Z,55.23
2023-02-12T11:56:56.275Z,55.83
2023-02-12T12:00:03.633Z,56.30
2023-02-12T12:03:26.579Z,55.07
2023-02-12T12:06:47.777Z,54.11
2023-02-12T12:10:01.563Z,54.76
2023-02-12T12:13:26.061Z,55.85
2023-02-12T12:17:09.302Z,55.97
2023-02-12T12:20:25.065Z,56.18
2023-02-12T12:23:43.788Z,57.31
2023-02-12T12:27:01.209Z,54.97
2023-02-12T12:30:12.420Z,54.83
2023-02-12T12:33:38.038Z,58.15
2023-02-12T12:37:21.047Z,55.18
2023-02-12T12:40:52.072Z,56.17
2023-02-12T12:44:23.520Z,55.59
2023-02-12T12:47:36.868Z,54.16
2023-02-12T12:50:47.144Z,54.52
2023-02-12T12:54:33.831Z,55.81
2023-02-12T12:57:57.887Z,55.34
2023-02-12T13:01:23.416Z,55.33
2023-02-12T13:04:55.725Z,55.47
2023-02-12T13:08:27.466Z,56.45
2023-02-12T13:11:42.630Z,56.23
2023-02-12T13:15:05.073Z,55.43
2023-02-12T13:18:22.086Z,56.72
2023-02-12T13:21:42.732Z,55.29
2023-02-12T13:24:55.957Z,54.92
2023-02-12T13:28:02.502Z,53.85
2023-02-12T13:31:31.789Z,54.67
2023-02-12T13:34:38.286Z,55.92
2023-02-12T13:37:46.279Z,55.56
2023-02-12T13:40:53.250Z,55.65
2023-02-12T13:44:33.542Z,55.98
2023-02-12T13:48:10.546Z,57.15
2023-02-12T13:51:30.649Z,56.90
2023-02-12T13:54:40.787Z,58.50
2023-02-12T13:57:45.110Z,57.78
2023-02-12T14:00:49.963Z,56.27
2023-02-12T14:03:56.739Z,55.20
2023-02-12T14:07:09.704Z,56.10
2023-02-12T14:10:33.076Z,58.21
2023-02-12T14:13:55.934Z,59.03
2023-02-12T14:17:33.023Z,58.45
2023-02-12T14:20:40.967Z,57.64
2023-02-12T14:23:50.848Z,57.41
2023-02-12T14:26:55.085Z,56.12
2023-02-12T14:30:11.497Z,59.55
2023-02-12T14:33:24.420Z,59.73
2023-02-12T14:36:39.671Z,57.75
2023-02-12T14:40:28.409Z,57.17
2023-02-12T14:43:58.993Z,56.06
2023-02-12T14:47:40.657Z,56.95
2023-02-12T14:50:51.365Z,56.34
2023-02-12T14:53:57.294Z,56.81
2023-02-12T14:57:06.902Z,57.03
2023-02-12T15:00:32.901Z,56.97
2023-02-12T15:03:39.723Z,58.00
2023-02-12T15:06:54.072Z,56.94
2023-02-12T15:10:11.642Z,57.04
2023-02-12T15:13:31.067Z,56.48
2023-02-12T15:17:11.074Z,57.08
2023-02-12T15:20:26.633Z,57.66
2023-02-12T15:23:46.416Z,58.12
2023-02-12T15:26:56.637Z,57.92
2023-02-12T15:30:01.998Z,58.65
2023-02-12T15:33:09.074Z,58.99
2023-02-12T15:36:19.668Z,58.82
2023-02-12T15:39:26.314Z,59.83
2023-02-12T15:42:56.656Z,59.42
2023-02-12T15:46:09.874Z,59.77
2023-02-12T15:49:23.097Z,59.09
2023-02-12T15:52:35.573Z,58.51
2023-02-12T15:55:43.732Z,57.78
2023-02-12T15:58:51.401Z,58.22
2023-02-12T16:02:03.100Z,57.45
2023-02-12T16:05:08.618Z,58.01
2023-02-12T16:08:18.546Z,58.42
2023-02-12T16:11:24.563Z,58.24
2023-02-12T16:14:41.649Z,57.37
2023-02-12T16:17:49.100Z,57.79
2023-02-12T16:21:16.964Z,57.43
2023-02-12T16:24:28.300Z,57.30
2023-02-12T16:27:37.251Z,56.63
2023-02-12T16:30:44.110Z,58.24
2023-02-12T16:33:54.013Z,58.35
2023-02-12T16:36:58.463Z,60.26
2023-02-12T16:40:11.245Z,61.10
2023-02-12T16:43:28.045Z,58.92
2023-02-12T16:46:56.755Z,57.36
2023-02-12T16:50:03.402Z,57.20
2023-02-12T16:53:23.544Z,56.83
2023-02-12T16:56:35.016Z,57.95
2023-02-12T16:59:44.252Z,59.62
2023-02-12T17:02:51.898Z,59.26
2023-02-12T17:05:59.387Z,60.98
2023-02-12T17:09:07.143Z,60.72
2023-02-12T17:12:25.008Z,60.82
2023-02-12T17:15:39.128Z,58.20
2023-02-12T17:18:43.600Z,58.26
2023-02-12T17:21:50.292Z,58.45
2023-02-12T17:24:55.567Z,61.41
2023-02-12T17:28:02.457Z,61.33
2023-02-12T17:31:07.946Z,61.02
2023-02-12T17:34:19.836Z,59.06
2023-02-12T17:37:25.412Z,57.44
2023-02-12T17:40:30.241Z,56.84
2023-02-12T17:43:37.210Z,57.76
2023-02-12T17:46:46.191Z,56.20
2023-02-12T17:49:50.717Z,56.14
2023-02-12T17:52:54.947Z,56.86
2023-02-12T17:56:02.004Z,59.47
2023-02-12T17:59:06.253Z,59.72
2023-02-12T18:02:12.676Z,58.63
2023-02-12T18:05:17.337Z,58.49
2023-02-12T18:08:21.943Z,57.14
2023-02-12T18:11:26.724Z,56.26
2023-02-12T18:14:31.146Z,56.78
2023-02-12T18:17:39.096Z,56.42
2023-02-12T18:20:45.722Z,55.63
2023-02-12T18:23:50.228Z,55.36
2023-02-12T18:26:54.625Z,55.17
2023-02-12T18:29:59.470Z,56.46
2023-02-12T18:33:04.122Z,57.52
2023-02-12T18:36:17.856Z,59.20
2023-02-12T18:39:22.082Z,57.92
2023-02-12T18:42:27.027Z,56.66
2023-02-12T18:45:31.342Z,56.58
2023-02-12T18:48:35.872Z,56.54
2023-02-12T18:51:41.804Z,57.98
2023-02-12T18:55:19.363Z,58.46
2023-02-12T18:58:24.328Z,57.90
2023-02-12T19:01:29.444Z,57.80
2023-02-12T19:04:34.123Z,57.95
2023-02-12T19:07:38.464Z,57.33
2023-02-12T19:10:43.322Z,56.27
2023-02-12T19:13:47.223Z,56.78
2023-02-12T19:16:52.127Z,57.66
2023-02-12T19:19:56.292Z,58.67
2023-02-12T19:23:00.701Z,58.84
2023-02-12T19:26:11.055Z,58.28
2023-02-12T19:29:15.235Z,56.90
2023-02-12T19:32:19.743Z,56.35
2023-02-12T19:35:23.552Z,55.39
2023-02-12T19:38:27.821Z,55.09
2023-02-12T19:41:33.658Z,54.59
2023-02-12T19:44:38.303Z,55.70
2023-02-12T19:47:42.948Z,56.34
2023-02-12T19:50:47.337Z,56.39
2023-02-12T19:53:51.500Z,55.50
2023-02-12T19:56:56.380Z,56.06
2023-02-12T20:00:00.763Z,56.67
2023-02-12T20:03:05.508Z,55.47
2023-02-12T20:06:14.270Z,55.33
2023-02-12T20:09:19.472Z,55.21
2023-02-12T20:12:23.794Z,56.21
2023-02-12T20:15:28.213Z,56.52
2023-02-12T20:18:32.566Z,56.40
2023-02-12T20:21:36.815Z,55.53
2023-02-12T20:24:40.957Z,55.90
2023-02-12T20:27:45.421Z,56.93
2023-02-12T20:30:49.830Z,57.72
2023-02-12T20:34:03.017Z,57.38
2023-02-12T20:37:07.845Z,56.59
2023-02-12T20:40:13.058Z,56.27
2023-02-12T20:43:17.438Z,55.19
2023-02-12T20:46:24.721Z,55.97
2023-02-12T20:49:29.346Z,56.21
2023-02-12T20:52:33.725Z,56.10
2023-02-12T20:55:37.609Z,56.55
2023-02-12T20:58:45.494Z,56.55
2023-02-12T21:01:49.987Z,55.43
2023-02-12T21:04:56.933Z,53.45
2023-02-12T21:08:01.084Z,53.32
2023-02-12T21:11:20.290Z,53.70
2023-02-12T21:14:25.154Z,54.27
2023-02-12T21:17:29.585Z,55.30
2023-02-12T21:20:33.800Z,55.16
2023-02-12T21:23:38.590Z,54.10
2023-02-12T21:26:42.548Z,55.20
2023-02-12T21:29:46.873Z,54.73
2023-02-12T21:32:51.984Z,54.08
2023-02-12T21:35:56.475Z,55.56
2023-02-12T21:39:01.837Z,55.44
2023-02-12T21:42:06.191Z,55.00
2023-02-12T21:45:10.990Z,55.29
2023-02-12T21:48:15.361Z,54.85
2023-02-12T21:51:23.853Z,55.55
2023-02-12T21:54:28.586Z,57.00
2023-02-12T21:57:33.314Z,57.63
2023-02-12T22:00:37.257Z,57.09
2023-02-12T22:03:53.269Z,56.83
2023-02-12T22:07:00.442Z,56.41
2023-02-12T22:10:04.870Z,57.83
2023-02-12T22:13:09.089Z,57.46
2023-02-12T22:16:15.506Z,55.95
2023-02-12T22:19:19.867Z,54.89
2023-02-12T22:22:24.642Z,55.48
2023-02-12T22:25:28.796Z,56.10
2023-02-12T22:28:41.874Z,56.72
2023-02-12T22:31:47.862Z,55.11
2023-02-12T22:34:52.349Z,54.18
2023-02-12T22:37:59.619Z,55.12
2023-02-12T22:41:07.304Z,54.92
2023-02-12T22:44:13.838Z,55.01
2023-02-12T22:47:18.324Z,55.58
2023-02-12T22:50:22.331Z,55.75
2023-02-12T22:53:27.098Z,56.13
2023-02-12T22:56:31.517Z,56.48
2023-02-12T22:59:35.616Z,56.42
2023-02-12T23:02:39.602Z,55.40
2023-02-12T23:05:44.017Z,54.77
2023-02-12T23:08:52.148Z,54.42
2023-02-12T23:11:56.701Z,54.80
2023-02-12T23:15:01.144Z,55.09
2023-02-12T23:18:06.074Z,55.87
2023-02-12T23:21:10.933Z,54.86
2023-02-12T23:24:15.680Z,56.35
2023-02-12T23:27:20.069Z,54.48
2023-02-12T23:30:24.452Z,58.26
2023-02-12T23:33:28.880Z,52.71
2023-02-12T23:36:33.909Z,50.81
2023-02-12T23:39:39.986Z,50.50
2023-02-12T23:42:44.427Z,50.42
2023-02-12T23:45:48.751Z,51.74
2023-02-12T23:48:53.019Z,52.80
2023-02-12T23:51:57.364Z,51.20
2023-02-12T23:55:01.630Z,51.21
2023-02-12T23:58:07.398Z,52.43
